Terminal Aerodrome Forecast
Issued by NWS Riverton, WY

Home | Current Version | Previous Version | Text Only | Print | Product List | Glossary On
Versions: 1 2 3 4 5 6 7 8 9 10 11 12 13 14
000
FTUS45 KRIW 011700
TAFRIW
TAF
KRIW 011721Z 0118/0218 33024G34KT P6SM FEW110
     FM020200 35010KT P6SM FEW070
     FM020800 31008KT P6SM SCT150
     FM021400 01015G22KT P6SM SCT040 BKN100=

USA.gov is the U.S. government's official web portal to all federal, state and local government web resources and services.